sensor_id;sensor_type;location;lat;lon;timestamp;pressure;altitude;pressure_sealevel;temperature;humidity
15558;BME280;7880;50.110;9.372;2022-12-05T00:04:13;2.067119264625944;;;2.125;100.0
15558;BME280;7880;50.110;9.372;2022-12-05T00:09:21;1.9713248517888133;;;2.125;100.0
15558;BME280;7880;50.110;9.372;2022-12-05T00:14:23;2.006617517978884;;;2.062;100.0
15558;BME280;7880;50.110;9.372;2022-12-05T00:19:32;2.10241196952411;;;2.187;100.0
15558;BME280;7880;50.110;9.372;2022-12-05T00:24:31;2.157871963176876;;;2.25;100.0
15558;BME280;7880;50.110;9.372;2022-12-05T00:29:36;2.183081062842393;;;2.312;100.0
15558;BME280;7880;50.110;9.372;2022-12-05T00:34:42;2.2788757079280915;;;2.375;100.0
15558;BME280;7880;50.110;9.372;2022-12-05T00:39:46;2.304084842518205;;;2.437;100.0
15558;BME280;7880;50.110;9.372;2022-12-05T00:44:50;2.2334992840013;;;2.375;100.0
15558;BME280;7880;50.110;9.372;2022-12-05T00:49:55;2.2738338818831836;;;2.375;100.0
15558;BME280;7880;50.110;9.372;2022-12-05T00:55:00;2.117537418846041;;;2.25;100.0
15558;BME280;7880;50.110;9.372;2022-12-05T01:00:06;2.1729974221030717;;;2.312;100.0
15558;BME280;7880;50.110;9.372;2022-12-05T01:05:09;2.248624756024219;;;2.312;100.0
15558;BME280;7880;50.110;9.372;2022-12-05T01:10:14;2.1225792358687614;;;2.312;100.0
15558;BME280;7880;50.110;9.372;2022-12-05T01:15:16;2.2133319920452776;;;2.25;100.0
15558;BME280;7880;50.110;9.372;2022-12-05T01:20:20;2.2940011878090445;;;2.375;100.0
15558;BME280;7880;50.110;9.372;2022-12-05T01:25:24;2.167955602169968;;;2.312;100.0
15558;BME280;7880;50.110;9.372;2022-12-05T01:30:27;2.2334992840013;;;2.375;100.0
15558;BME280;7880;50.110;9.372;2022-12-05T01:35:39;2.304084842518205;;;2.437;100.0
15558;BME280;7880;50.110;9.372;2022-12-05T01:40:35;2.2940011878090445;;;2.437;100.0
15558;BME280;7880;50.110;9.372;2022-12-05T01:45:29;2.1881228836486115;;;2.375;100.0
15558;BME280;7880;50.110;9.372;2022-12-05T01:50:11;2.0570356372743843;;;2.25;100.0
15558;BME280;7880;50.110;9.372;2022-12-05T01:55:15;2.0721610787382816;;;2.187;100.0
15558;BME280;7880;50.110;9.372;2022-12-05T02:00:19;2.001575707650045;;;2.062;100.0
15558;BME280;7880;50.110;9.372;2022-12-05T02:05:23;2.3141684983915183;;;2.375;100.0
15558;BME280;7880;50.110;9.372;2022-12-05T02:10:25;2.248624756024219;;;2.375;100.0
15558;BME280;7880;50.110;9.372;2022-12-05T02:15:35;2.067119264625944;;;2.187;100.0
15558;BME280;7880;50.110;9.372;2022-12-05T02:20:46;2.1729974221030717;;;2.25;100.0
15558;BME280;7880;50.110;9.372;2022-12-05T02:25:52;2.2082901697838677;;;2.312;100.0
15558;BME280;7880;50.110;9.372;2022-12-05T02:30:42;2.2133319920452776;;;2.25;100.0
15558;BME280;7880;50.110;9.372;2022-12-05T02:35:50;2.304084842518205;;;2.375;100.0
15558;BME280;7880;50.110;9.372;2022-12-05T02:40:56;2.3242521554289852;;;2.437;100.0
15558;BME280;7880;50.110;9.372;2022-12-05T02:45:58;2.2940011878090445;;;2.375;100.0
15558;BME280;7880;50.110;9.372;2022-12-05T02:50:58;2.162913782527903;;;2.25;100.0
15558;BME280;7880;50.110;9.372;2022-12-05T02:56:01;2.2234156374412124;;;2.312;100.0
15558;BME280;7880;50.110;9.372;2022-12-05T03:01:07;2.2385411077179014;;;2.312;100.0
15558;BME280;7880;50.110;9.372;2022-12-05T03:06:11;2.167955602169968;;;2.25;100.0
15558;BME280;7880;50.110;9.372;2022-12-05T03:11:12;2.183081062842393;;;2.25;100.0
15558;BME280;7880;50.110;9.372;2022-12-05T03:16:22;2.2334992840013;;;2.312;100.0
15558;BME280;7880;50.110;9.372;2022-12-05T03:21:24;2.2536665806139355;;;2.312;100.0
15558;BME280;7880;50.110;9.372;2022-12-05T03:26:35;2.2990430150181056;;;2.375;100.0
15558;BME280;7880;50.110;9.372;2022-12-05T03:31:37;2.243582931725541;;;2.375;100.0
15558;BME280;7880;50.110;9.372;2022-12-05T03:36:43;2.2637502306664827;;;2.375;100.0
15558;BME280;7880;50.110;9.372;2022-12-05T03:41:40;2.3645867952203843;;;2.5;100.0
15558;BME280;7880;50.110;9.372;2022-12-05T03:46:43;2.42508878983208;;;2.562;100.0
15558;BME280;7880;50.110;9.372;2022-12-05T03:51:52;2.4452561306825373;;;2.625;100.0
15558;BME280;7880;50.110;9.372;2022-12-05T03:57:01;2.5259255406504963;;;2.687;100.0
15558;BME280;7880;50.110;9.372;2022-12-05T04:01:57;2.5057581811735874;;;2.625;100.0
15558;BME280;7880;50.110;9.372;2022-12-05T04:07:05;2.4906326646218075;;;2.625;100.0
15558;BME280;7880;50.110;9.372;2022-12-05T04:12:08;2.515841860329965;;;2.625;100.0
15558;BME280;7880;50.110;9.372;2022-12-05T04:17:14;2.546092904784018;;;2.687;100.0
15558;BME280;7880;50.110;9.372;2022-12-05T04:22:12;2.5057581811735874;;;2.687;100.0
15558;BME280;7880;50.110;9.372;2022-12-05T04:27:21;2.5612184309400616;;;2.687;100.0
15558;BME280;7880;50.110;9.372;2022-12-05T04:32:25;2.5612184309400616;;;2.687;100.0
15558;BME280;7880;50.110;9.372;2022-12-05T04:37:24;2.6267624078842347;;;2.75;100.0
15558;BME280;7880;50.110;9.372;2022-12-05T04:42:28;2.566260273574153;;;2.75;100.0
15558;BME280;7880;50.110;9.372;2022-12-05T04:47:34;2.5713021164992824;;;2.687;100.0
15558;BME280;7880;50.110;9.372;2022-12-05T04:52:36;2.5259255406504963;;;2.625;100.0
15558;BME280;7880;50.110;9.372;2022-12-05T04:57:49;2.6822227344848217;;;2.812;100.0
15558;BME280;7880;50.110;9.372;2022-12-05T05:02:52;2.66709718737402;;;2.812;100.0
15558;BME280;7880;50.110;9.372;2022-12-05T05:07:52;2.6519716428825633;;;2.812;100.0
15558;BME280;7880;50.110;9.372;2022-12-05T05:12:52;2.5612184309400616;;;2.75;100.0
15558;BME280;7880;50.110;9.372;2022-12-05T05:17:58;2.646929795300821;;;2.812;100.0
15558;BME280;7880;50.110;9.372;2022-12-05T05:22:59;2.5208837003447115;;;2.625;100.0
15558;BME280;7880;50.110;9.372;2022-12-05T05:28:02;2.657013490755344;;;2.75;100.0
15558;BME280;7880;50.110;9.372;2022-12-05T05:33:06;2.4654234761896077;;;2.625;100.0
15558;BME280;7880;50.110;9.372;2022-12-05T05:38:09;2.657013490755344;;;2.75;100.0
15558;BME280;7880;50.110;9.372;2022-12-05T05:43:12;2.566260273574153;;;2.75;100.0
15558;BME280;7880;50.110;9.372;2022-12-05T05:48:15;2.420046955347061;;;2.562;100.0
15558;BME280;7880;50.110;9.372;2022-12-05T05:53:19;2.5813858032226564;;;2.625;100.0
15558;BME280;7880;50.110;9.372;2022-12-05T05:58:22;2.3494613031158225;;;2.5;100.0
15558;BME280;7880;50.110;9.372;2022-12-05T06:03:25;2.8284364915976767;;;2.75;100.0
15558;BME280;7880;50.110;9.372;2022-12-05T06:08:30;2.566260273574153;;;2.687;100.0
15558;BME280;7880;50.110;9.372;2022-12-05T06:13:32;2.5763439597154503;;;2.75;100.0
15558;BME280;7880;50.110;9.372;2022-12-05T06:18:37;2.500716342031956;;;2.562;100.0
15558;BME280;7880;50.110;9.372;2022-12-05T06:23:42;2.5511347465449945;;;2.625;100.0
15558;BME280;7880;50.110;9.372;2022-12-05T06:28:46;2.5864276470209004;;;2.687;100.0
15558;BME280;7880;50.110;9.372;2022-12-05T06:33:49;2.556176588597009;;;2.687;100.0
15558;BME280;7880;50.110;9.372;2022-12-05T06:38:58;2.6267624078842347;;;2.687;100.0
15558;BME280;7880;50.110;9.372;2022-12-05T06:43:57;2.727599391533295;;;2.875;100.0
15558;BME280;7880;50.110;9.372;2022-12-05T06:48:29;2.7679342175892088;;;2.875;100.0
15558;BME280;7880;50.110;9.372;2022-12-05T06:53:44;2.66709718737402;;;2.812;100.0
15558;BME280;7880;50.110;9.372;2022-12-05T06:58:38;2.707431985490257;;;2.875;100.0
15558;BME280;7880;50.110;9.372;2022-12-05T07:03:43;2.752808655635454;;;2.937;100.0
15558;BME280;7880;50.110;9.372;2022-12-05T07:08:46;2.7578505093290007;;;2.875;100.0
15558;BME280;7880;50.110;9.372;2022-12-05T07:13:49;2.752808655635454;;;2.937;100.0
15558;BME280;7880;50.110;9.372;2022-12-05T07:18:53;2.7981853493547533;;;2.937;100.0
15558;BME280;7880;50.110;9.372;2022-12-05T07:23:56;2.803227205667645;;;2.937;100.0
15558;BME280;7880;50.110;9.372;2022-12-05T07:29:00;2.8082690622715747;;;2.937;100.0
15558;BME280;7880;50.110;9.372;2022-12-05T07:34:04;2.657013490755344;;;2.875;100.0
15558;BME280;7880;50.110;9.372;2022-12-05T07:39:08;2.5208837003447115;;;2.687;100.0
15558;BME280;7880;50.110;9.372;2022-12-05T07:44:12;2.515841860329965;;;2.625;100.0
15558;BME280;7880;50.110;9.372;2022-12-05T07:49:16;2.4351724596752318;;;2.562;100.0
15558;BME280;7880;50.110;9.372;2022-12-05T07:54:19;2.5309673812473195;;;2.625;100.0
15558;BME280;7880;50.110;9.372;2022-12-05T07:59:22;2.6519716428825633;;;2.75;100.0
15558;BME280;7880;50.110;9.372;2022-12-05T08:04:26;2.4956745031813625;;;2.625;100.0
15558;BME280;7880;50.110;9.372;2022-12-05T08:09:29;2.4099632872501386;;;2.562;100.0
15558;BME280;7880;50.110;9.372;2022-12-05T08:14:33;2.475507150689373;;;2.5;100.0
15558;BME280;7880;50.110;9.372;2022-12-05T08:19:37;2.5763439597154503;;;2.625;100.0
15558;BME280;7880;50.110;9.372;2022-12-05T08:24:44;2.5713021164992824;;;2.687;100.0
15558;BME280;7880;50.110;9.372;2022-12-05T08:29:45;2.39987962031737;;;2.5;100.0
15558;BME280;7880;50.110;9.372;2022-12-05T08:34:48;2.3444194729963783;;;2.437;100.0
15558;BME280;7880;50.110;9.372;2022-12-05T08:39:51;2.4956745031813625;;;2.5;100.0
15558;BME280;7880;50.110;9.372;2022-12-05T08:45:08;2.54105106331408;;;2.625;100.0
15558;BME280;7880;50.110;9.372;2022-12-05T08:49:59;2.727599391533295;;;2.812;100.0
15558;BME280;7880;50.110;9.372;2022-12-05T08:55:19;2.556176588597009;;;2.75;100.0
15558;BME280;7880;50.110;9.372;2022-12-05T09:00:09;2.5965113354905043;;;2.687;100.0
15558;BME280;7880;50.110;9.372;2022-12-05T09:05:13;2.717515687929699;;;2.812;100.0
15558;BME280;7880;50.110;9.372;2022-12-05T09:10:17;2.6418879480101167;;;2.812;100.0
15558;BME280;7880;50.110;9.372;2022-12-05T09:15:37;2.752808655635454;;;2.875;100.0
15558;BME280;7880;50.110;9.372;2022-12-05T09:20:26;2.9191899811907205;;;3.0;100.0
15558;BME280;7880;50.110;9.372;2022-12-05T09:25:31;2.66709718737402;;;2.875;100.0
15558;BME280;7880;50.110;9.372;2022-12-05T09:30:32;2.8385202080069574;;;2.937;100.0
15558;BME280;7880;50.110;9.372;2022-12-05T09:35:38;2.717515687929699;;;2.875;100.0
15558;BME280;7880;50.110;9.372;2022-12-05T09:40:41;2.742724949121475;;;2.812;100.0
15558;BME280;7880;50.110;9.372;2022-12-05T09:45:52;2.6267624078842347;;;2.75;100.0
15558;BME280;7880;50.110;9.372;2022-12-05T09:50:54;2.6267624078842347;;;2.687;100.0
15558;BME280;7880;50.110;9.372;2022-12-05T09:56:03;2.6721390361199155;;;2.75;100.0
15558;BME280;7880;50.110;9.372;2022-12-05T10:01:02;2.5965113354905043;;;2.687;100.0
15558;BME280;7880;50.110;9.372;2022-12-05T10:06:10;2.636846101010451;;;2.75;100.0
15558;BME280;7880;50.110;9.372;2022-12-05T10:11:24;2.636846101010451;;;2.687;100.0
15558;BME280;7880;50.110;9.372;2022-12-05T10:16:19;2.6923064340138807;;;2.75;100.0
15558;BME280;7880;50.110;9.372;2022-12-05T10:21:24;2.6923064340138807;;;2.875;100.0
15558;BME280;7880;50.110;9.372;2022-12-05T10:26:29;2.7729760721558705;;;2.875;100.0
15558;BME280;7880;50.110;9.372;2022-12-05T10:31:31;2.7628923633135853;;;2.875;100.0
15558;BME280;7880;50.110;9.372;2022-12-05T10:36:33;2.7780179270135705;;;2.875;100.0
15558;BME280;7880;50.110;9.372;2022-12-05T10:41:35;2.6065950251242613;;;2.75;100.0
15558;BME280;7880;50.110;9.372;2022-12-05T10:46:42;2.803227205667645;;;2.875;100.0
15558;BME280;7880;50.110;9.372;2022-12-05T10:51:46;2.9242318444885314;;;3.0;100.0
15558;BME280;7880;50.110;9.372;2022-12-05T10:56:52;3.0603622635419017;;;3.187;100.0
15558;BME280;7880;50.110;9.372;2022-12-05T11:01:56;2.9191899811907205;;;3.125;100.0
15558;BME280;7880;50.110;9.372;2022-12-05T11:06:58;3.020027302444214;;;3.187;100.0
15558;BME280;7880;50.110;9.372;2022-12-05T11:12:13;3.0704460067267063;;;3.187;100.0
15558;BME280;7880;50.110;9.372;2022-12-05T11:17:22;3.0553203923860566;;;3.187;100.0
15558;BME280;7880;50.110;9.372;2022-12-05T11:22:15;3.2469117009080946;;;3.312;100.0
15558;BME280;7880;50.110;9.372;2022-12-05T11:27:26;3.201534774067113;;;3.375;100.0
15558;BME280;7880;50.110;9.372;2022-12-05T11:32:25;3.2368279373506086;;;3.312;100.0
15558;BME280;7880;50.110;9.372;2022-12-05T11:37:31;3.2166604137280954;;;3.312;100.0
15558;BME280;7880;50.110;9.372;2022-12-05T11:42:36;3.2116185335500633;;;3.25;100.0
15558;BME280;7880;50.110;9.372;2022-12-05T11:47:41;3.146074117720127;;;3.25;100.0
15558;BME280;7880;50.110;9.372;2022-12-05T11:52:53;3.3174980784067882;;;3.375;100.0
15558;BME280;7880;50.110;9.372;2022-12-05T11:58:05;3.1712835026031825;;;3.312;100.0
15558;BME280;7880;50.110;9.372;2022-12-05T12:03:21;3.201534774067113;;;3.312;100.0
15558;BME280;7880;50.110;9.372;2022-12-05T12:08:12;3.31245619240799;;;3.375;100.0
15558;BME280;7880;50.110;9.372;2022-12-05T12:13:26;3.2771629985654727;;;3.375;100.0
15558;BME280;7880;50.110;9.372;2022-12-05T12:18:23;3.403210184915224;;;3.5;100.0
15558;BME280;7880;50.110;9.372;2022-12-05T12:23:31;3.483880479639629;;;3.562;100.0
15558;BME280;7880;50.110;9.372;2022-12-05T12:28:32;3.231786056008423;;;3.375;100.0
15558;BME280;7880;50.110;9.372;2022-12-05T12:33:32;3.256995465629734;;;3.375;100.0
15558;BME280;7880;50.110;9.372;2022-12-05T12:38:43;3.4637128989736086;;;3.5;100.0
15558;BME280;7880;50.110;9.372;2022-12-05T12:43:43;3.251953583123395;;;3.375;100.0
15558;BME280;7880;50.110;9.372;2022-12-05T12:48:58;3.347749400511384;;;3.437;100.0
15558;BME280;7880;50.110;9.372;2022-12-05T12:53:55;3.3427075127663555;;;3.437;100.0
15558;BME280;7880;50.110;9.372;2022-12-05T12:59:07;3.2670792315155266;;;3.312;100.0
15558;BME280;7880;50.110;9.372;2022-12-05T13:03:56;3.3578331768745557;;;3.437;100.0
15558;BME280;7880;50.110;9.372;2022-12-05T13:09:05;3.7863947484234814;;;3.937;100.0
15558;BME280;7880;50.110;9.372;2022-12-05T13:14:03;3.322539964696625;;;3.5;100.0
15558;BME280;7880;50.110;9.372;2022-12-05T13:19:05;3.2116185335500633;;;3.312;100.0
15558;BME280;7880;50.110;9.372;2022-12-05T13:24:10;3.287246766779572;;;3.375;100.0
15558;BME280;7880;50.110;9.372;2022-12-05T13:29:20;3.2771629985654727;;;3.375;100.0
15558;BME280;7880;50.110;9.372;2022-12-05T13:34:50;3.2267441749572754;;;3.25;100.0
15558;BME280;7880;50.110;9.372;2022-12-05T13:46:28;3.020027302444214;;;3.125;100.0
15558;BME280;7880;50.110;9.372;2022-12-05T13:51:36;3.1914510157483162;;;3.25;100.0
15558;BME280;7880;50.110;9.372;2022-12-05T13:56:47;3.1662416250444947;;;3.187;100.0
15558;BME280;7880;50.110;9.372;2022-12-05T14:01:45;3.0149854336166753;;;3.125;100.0
15558;BME280;7880;50.110;9.372;2022-12-05T14:07:10;3.1158228654647244;;;3.187;100.0
15558;BME280;7880;50.110;9.372;2022-12-05T14:12:28;3.0149854336166753;;;3.062;100.0
15558;BME280;7880;50.110;9.372;2022-12-05T14:17:13;3.0855716236867012;;;3.187;100.0
15558;BME280;7880;50.110;9.372;2022-12-05T14:22:40;2.9645667613483964;;;3.125;100.0
15558;BME280;7880;50.110;9.372;2022-12-05T14:27:30;3.1309484902827536;;;3.187;100.0
15558;BME280;7880;50.110;9.372;2022-12-05T14:32:29;3.1611997477768456;;;3.187;100.0
15558;BME280;7880;50.110;9.372;2022-12-05T14:37:33;3.1511159941146616;;;3.25;100.0
15558;BME280;7880;50.110;9.372;2022-12-05T14:42:41;3.1662416250444947;;;3.312;100.0
15558;BME280;7880;50.110;9.372;2022-12-05T14:47:51;3.241869818983832;;;3.312;100.0
15558;BME280;7880;50.110;9.372;2022-12-05T14:54:02;3.2771629985654727;;;3.375;100.0
15558;BME280;7880;50.110;9.372;2022-12-05T14:58:48;3.2922886513231786;;;3.375;100.0
15558;BME280;7880;50.110;9.372;2022-12-05T15:04:15;3.2721211148949805;;;3.437;100.0
15558;BME280;7880;50.110;9.372;2022-12-05T15:09:07;3.1611997477768456;;;3.312;100.0
15558;BME280;7880;50.110;9.372;2022-12-05T15:14:11;3.2166604137280954;;;3.312;100.0
15558;BME280;7880;50.110;9.372;2022-12-05T15:19:16;3.206576653663069;;;3.312;100.0
15558;BME280;7880;50.110;9.372;2022-12-05T15:24:15;3.3174980784067882;;;3.437;100.0
15558;BME280;7880;50.110;9.372;2022-12-05T15:29:23;3.2469117009080946;;;3.375;100.0
15558;BME280;7880;50.110;9.372;2022-12-05T15:34:28;3.2922886513231786;;;3.375;100.0
15558;BME280;7880;50.110;9.372;2022-12-05T15:39:26;3.2116185335500633;;;3.312;100.0
15558;BME280;7880;50.110;9.372;2022-12-05T15:44:30;3.3023724212835077;;;3.375;100.0
15558;BME280;7880;50.110;9.372;2022-12-05T15:49:51;3.428419644013047;;;3.5;100.0
15558;BME280;7880;50.110;9.372;2022-12-05T15:54:51;4.572936750674853;;;4.5;100.0
15558;BME280;7880;50.110;9.372;2022-12-05T15:59:46;3.6452212926058563;;;3.875;100.0
15558;BME280;7880;50.110;9.372;2022-12-05T16:05:03;3.4435453229642006;;;3.625;100.0
15558;BME280;7880;50.110;9.372;2022-12-05T16:09:55;3.3578331768745557;;;3.5;100.0
15558;BME280;7880;50.110;9.372;2022-12-05T16:14:59;3.3981682939687743;;;3.437;100.0
15558;BME280;7880;50.110;9.372;2022-12-05T16:20:11;3.9477361201832535;;;3.75;100.0
15558;BME280;7880;50.110;9.372;2022-12-05T16:25:13;3.705724174302304;;;3.875;100.0
15558;BME280;7880;50.110;9.372;2022-12-05T16:30:18;3.5595089486101643;;;3.687;100.0
15558;BME280;7880;50.110;9.372;2022-12-05T16:35:46;3.4435453229642006;;;3.625;100.0
15558;BME280;7880;50.110;9.372;2022-12-05T16:40:32;3.529257553163916;;;3.625;100.0
15558;BME280;7880;50.110;9.372;2022-12-05T16:45:41;3.448587216529995;;;3.562;100.0
15558;BME280;7880;50.110;9.372;2022-12-05T16:50:38;3.3023724212835077;;;3.5;100.0
15558;BME280;7880;50.110;9.372;2022-12-05T16:55:48;3.322539964696625;;;3.437;100.0
15558;BME280;7880;50.110;9.372;2022-12-05T17:01:00;3.408252076152712;;;3.437;100.0
15558;BME280;7880;50.110;9.372;2022-12-05T17:06:03;3.428419644013047;;;3.562;100.0
15558;BME280;7880;50.110;9.372;2022-12-05T17:11:11;3.433461536705727;;;3.562;100.0
15558;BME280;7880;50.110;9.372;2022-12-05T17:16:13;3.3427075127663555;;;3.437;100.0
15558;BME280;7880;50.110;9.372;2022-12-05T17:21:21;3.483880479639629;;;3.625;100.0
15558;BME280;7880;50.110;9.372;2022-12-05T17:26:23;3.31245619240799;;;3.437;100.0
15558;BME280;7880;50.110;9.372;2022-12-05T17:31:26;3.3527912885474507;;;3.437;100.0
15558;BME280;7880;50.110;9.372;2022-12-05T17:36:32;3.433461536705727;;;3.5;100.0
15558;BME280;7880;50.110;9.372;2022-12-05T17:41:41;3.4637128989736086;;;3.562;100.0
15558;BME280;7880;50.110;9.372;2022-12-05T17:46:41;3.3981682939687743;;;3.5;100.0
15558;BME280;7880;50.110;9.372;2022-12-05T17:51:47;3.2670792315155266;;;3.375;100.0
15558;BME280;7880;50.110;9.372;2022-12-05T17:56:50;3.38808451294899;;;3.437;100.0
15558;BME280;7880;50.110;9.372;2022-12-05T18:01:54;3.423377751611406;;;3.562;100.0
15558;BME280;7880;50.110;9.372;2022-12-05T18:06:58;3.3174980784067882;;;3.437;100.0
15558;BME280;7880;50.110;9.372;2022-12-05T18:12:03;3.493964271718869;;;3.562;100.0
15558;BME280;7880;50.110;9.372;2022-12-05T18:17:09;3.428419644013047;;;3.5;100.0
15558;BME280;7880;50.110;9.372;2022-12-05T18:22:10;3.3275818512775004;;;3.437;100.0
15558;BME280;7880;50.110;9.372;2022-12-05T18:27:15;3.4132939676812386;;;3.5;100.0
15558;BME280;7880;50.110;9.372;2022-12-05T18:32:21;3.3729588436021003;;;3.5;100.0
15558;BME280;7880;50.110;9.372;2022-12-05T18:37:27;3.1914510157483162;;;3.375;100.0
15558;BME280;7880;50.110;9.372;2022-12-05T18:42:32;3.251953583123395;;;3.375;100.0
15558;BME280;7880;50.110;9.372;2022-12-05T18:47:44;3.2217022941971662;;;3.312;100.0
15558;BME280;7880;50.110;9.372;2022-12-05T18:52:42;3.4132939676812386;;;3.5;100.0
15558;BME280;7880;50.110;9.372;2022-12-05T18:57:54;3.5342994516773616;;;3.625;100.0
15558;BME280;7880;50.110;9.372;2022-12-05T19:02:50;3.231786056008423;;;3.375;100.0
15558;BME280;7880;50.110;9.372;2022-12-05T19:07:56;3.332623738149414;;;3.437;100.0
15558;BME280;7880;50.110;9.372;2022-12-05T19:13:00;3.3679169544018803;;;3.437;100.0
15558;BME280;7880;50.110;9.372;2022-12-05T19:18:05;3.201534774067113;;;3.312;100.0
15558;BME280;7880;50.110;9.372;2022-12-05T19:23:11;3.38808451294899;;;3.437;100.0
15558;BME280;7880;50.110;9.372;2022-12-05T19:28:18;3.2166604137280954;;;3.375;100.0
15558;BME280;7880;50.110;9.372;2022-12-05T19:33:20;3.1107809911074584;;;3.187;100.0
15558;BME280;7880;50.110;9.372;2022-12-05T19:38:24;3.181367258593673;;;3.25;100.0
15558;BME280;7880;50.110;9.372;2022-12-05T19:43:33;3.2368279373506086;;;3.375;100.0
15558;BME280;7880;50.110;9.372;2022-12-05T19:48:33;3.1662416250444947;;;3.25;100.0
15558;BME280;7880;50.110;9.372;2022-12-05T19:53:39;3.282204882527003;;;3.375;100.0
15558;BME280;7880;50.110;9.372;2022-12-05T19:58:43;3.1410322416166307;;;3.25;100.0
15558;BME280;7880;50.110;9.372;2022-12-05T20:03:48;3.1006972432660405;;;3.187;100.0
15558;BME280;7880;50.110;9.372;2022-12-05T20:08:55;3.1057391170412303;;;3.25;100.0
15558;BME280;7880;50.110;9.372;2022-12-05T20:14:00;3.181367258593673;;;3.25;100.0
15558;BME280;7880;50.110;9.372;2022-12-05T20:19:04;3.282204882527003;;;3.375;100.0
15558;BME280;7880;50.110;9.372;2022-12-05T20:24:08;3.297330536157824;;;3.375;100.0
15558;BME280;7880;50.110;9.372;2022-12-05T20:29:12;3.251953583123395;;;3.375;100.0
15558;BME280;7880;50.110;9.372;2022-12-05T20:34:16;3.206576653663069;;;3.312;100.0
15558;BME280;7880;50.110;9.372;2022-12-05T20:39:24;3.31245619240799;;;3.375;100.0
15558;BME280;7880;50.110;9.372;2022-12-05T20:44:31;3.2217022941971662;;;3.375;100.0
15558;BME280;7880;50.110;9.372;2022-12-05T20:49:34;3.1006972432660405;;;3.25;100.0
15558;BME280;7880;50.110;9.372;2022-12-05T20:54:34;3.256995465629734;;;3.312;100.0
15558;BME280;7880;50.110;9.372;2022-12-05T20:59:39;3.2166604137280954;;;3.312;100.0
15558;BME280;7880;50.110;9.372;2022-12-05T21:04:48;3.2217022941971662;;;3.312;100.0
15558;BME280;7880;50.110;9.372;2022-12-05T21:09:48;3.1561578708002345;;;3.312;100.0
15558;BME280;7880;50.110;9.372;2022-12-05T21:14:52;3.3023724212835077;;;3.375;100.0
15558;BME280;7880;50.110;9.372;2022-12-05T21:19:56;3.2670792315155266;;;3.375;100.0
15558;BME280;7880;50.110;9.372;2022-12-05T21:25:00;3.2217022941971662;;;3.312;100.0
15558;BME280;7880;50.110;9.372;2022-12-05T21:30:07;3.0704460067267063;;;3.187;100.0
15558;BME280;7880;50.110;9.372;2022-12-05T21:35:07;3.1511159941146616;;;3.25;100.0
15558;BME280;7880;50.110;9.372;2022-12-05T21:40:10;3.1712835026031825;;;3.25;100.0
15558;BME280;7880;50.110;9.372;2022-12-05T21:45:15;3.0855716236867012;;;3.187;100.0
15558;BME280;7880;50.110;9.372;2022-12-05T21:50:18;3.025069171562791;;;3.125;100.0
15558;BME280;7880;50.110;9.372;2022-12-05T21:55:24;3.241869818983832;;;3.312;100.0
15558;BME280;7880;50.110;9.372;2022-12-05T22:00:25;3.1006972432660405;;;3.25;100.0
15558;BME280;7880;50.110;9.372;2022-12-05T22:05:12;3.1662416250444947;;;3.25;100.0
15558;BME280;7880;50.110;9.372;2022-12-05T22:10:25;3.1914510157483162;;;3.312;100.0
15558;BME280;7880;50.110;9.372;2022-12-05T22:15:19;3.1712835026031825;;;3.25;100.0
15558;BME280;7880;50.110;9.372;2022-12-05T22:20:23;3.2116185335500633;;;3.312;100.0
15558;BME280;7880;50.110;9.372;2022-12-05T22:25:27;3.1006972432660405;;;3.187;100.0
15558;BME280;7880;50.110;9.372;2022-12-05T22:30:35;3.2217022941971662;;;3.312;100.0
15558;BME280;7880;50.110;9.372;2022-12-05T22:35:34;3.0906134965887757;;;3.187;100.0
15558;BME280;7880;50.110;9.372;2022-12-05T22:40:38;3.1712835026031825;;;3.312;100.0
15558;BME280;7880;50.110;9.372;2022-12-05T22:45:42;3.125906615052372;;;3.25;100.0
15558;BME280;7880;50.110;9.372;2022-12-05T22:50:50;3.125906615052372;;;3.187;100.0
15558;BME280;7880;50.110;9.372;2022-12-05T22:56:00;3.0603622635419017;;;3.187;100.0
15558;BME280;7880;50.110;9.372;2022-12-05T23:01:10;3.146074117720127;;;3.25;100.0
15558;BME280;7880;50.110;9.372;2022-12-05T23:06:09;3.0099435650801754;;;3.125;100.0
15558;BME280;7880;50.110;9.372;2022-12-05T23:11:11;3.0452366509474813;;;3.187;100.0
15558;BME280;7880;50.110;9.372;2022-12-05T23:16:17;3.030111040972406;;;3.125;100.0
15558;BME280;7880;50.110;9.372;2022-12-05T23:21:18;2.9998598288802896;;;3.125;100.0
15558;BME280;7880;50.110;9.372;2022-12-05T23:26:21;3.1107809911074584;;;3.187;100.0
15558;BME280;7880;50.110;9.372;2022-12-05T23:31:23;3.1662416250444947;;;3.25;100.0
15558;BME280;7880;50.110;9.372;2022-12-05T23:36:28;3.1662416250444947;;;3.25;100.0
15558;BME280;7880;50.110;9.372;2022-12-05T23:41:36;3.2368279373506086;;;3.312;100.0
15558;BME280;7880;50.110;9.372;2022-12-05T23:46:41;3.2721211148949805;;;3.375;100.0
15558;BME280;7880;50.110;9.372;2022-12-05T23:51:41;3.231786056008423;;;3.375;100.0
15558;BME280;7880;50.110;9.372;2022-12-05T23:56:45;3.1158228654647244;;;3.25;100.0
